sensor_id;sensor_type;location;lat;lon;timestamp;temperature;humidity
53748;DHT22;39655;53.210;5.768;2024-03-25T00:00:12;6.40;84.20
53748;DHT22;39655;53.210;5.768;2024-03-25T00:02:39;6.40;84.10
53748;DHT22;39655;53.210;5.768;2024-03-25T00:05:06;6.30;84.10
53748;DHT22;39655;53.210;5.768;2024-03-25T00:07:35;6.40;83.50
53748;DHT22;39655;53.210;5.768;2024-03-25T00:10:00;6.30;83.40
53748;DHT22;39655;53.210;5.768;2024-03-25T00:12:26;6.20;83.70
53748;DHT22;39655;53.210;5.768;2024-03-25T00:14:52;6.10;83.90
53748;DHT22;39655;53.210;5.768;2024-03-25T00:17:17;6.00;84.20
53748;DHT22;39655;53.210;5.768;2024-03-25T00:19:45;6.00;84.60
53748;DHT22;39655;53.210;5.768;2024-03-25T00:22:19;6.00;84.70
53748;DHT22;39655;53.210;5.768;2024-03-25T00:24:45;5.90;84.60
53748;DHT22;39655;53.210;5.768;2024-03-25T00:27:12;5.90;84.70
53748;DHT22;39655;53.210;5.768;2024-03-25T00:29:38;5.90;84.90
53748;DHT22;39655;53.210;5.768;2024-03-25T00:32:04;5.80;85.00
53748;DHT22;39655;53.210;5.768;2024-03-25T00:34:30;5.70;85.30
53748;DHT22;39655;53.210;5.768;2024-03-25T00:36:55;5.80;85.30
53748;DHT22;39655;53.210;5.768;2024-03-25T00:39:21;5.90;85.20
53748;DHT22;39655;53.210;5.768;2024-03-25T00:41:49;6.10;84.90
53748;DHT22;39655;53.210;5.768;2024-03-25T00:44:15;6.10;85.00
53748;DHT22;39655;53.210;5.768;2024-03-25T00:46:41;6.10;85.00
53748;DHT22;39655;53.210;5.768;2024-03-25T00:49:07;6.20;85.10
53748;DHT22;39655;53.210;5.768;2024-03-25T00:51:33;6.20;85.30
53748;DHT22;39655;53.210;5.768;2024-03-25T00:53:59;6.20;85.00
53748;DHT22;39655;53.210;5.768;2024-03-25T00:56:25;6.20;84.30
53748;DHT22;39655;53.210;5.768;2024-03-25T00:58:51;6.10;84.40
53748;DHT22;39655;53.210;5.768;2024-03-25T01:01:17;6.00;84.30
53748;DHT22;39655;53.210;5.768;2024-03-25T01:03:42;5.90;84.00
53748;DHT22;39655;53.210;5.768;2024-03-25T01:06:08;5.80;83.70
53748;DHT22;39655;53.210;5.768;2024-03-25T01:08:33;5.70;83.80
53748;DHT22;39655;53.210;5.768;2024-03-25T01:10:59;5.80;83.90
53748;DHT22;39655;53.210;5.768;2024-03-25T01:13:25;5.80;83.70
53748;DHT22;39655;53.210;5.768;2024-03-25T01:15:51;5.80;83.40
53748;DHT22;39655;53.210;5.768;2024-03-25T01:18:17;5.90;83.00
53748;DHT22;39655;53.210;5.768;2024-03-25T01:20:43;5.90;83.10
53748;DHT22;39655;53.210;5.768;2024-03-25T01:23:10;6.00;82.50
53748;DHT22;39655;53.210;5.768;2024-03-25T01:25:35;6.10;82.60
53748;DHT22;39655;53.210;5.768;2024-03-25T01:28:01;6.10;82.50
53748;DHT22;39655;53.210;5.768;2024-03-25T01:30:27;6.10;82.50
53748;DHT22;39655;53.210;5.768;2024-03-25T01:32:54;6.10;82.70
53748;DHT22;39655;53.210;5.768;2024-03-25T01:35:20;6.00;82.80
53748;DHT22;39655;53.210;5.768;2024-03-25T01:37:46;5.90;83.20
53748;DHT22;39655;53.210;5.768;2024-03-25T01:40:11;5.90;83.50
53748;DHT22;39655;53.210;5.768;2024-03-25T01:42:37;5.80;83.70
53748;DHT22;39655;53.210;5.768;2024-03-25T01:45:04;5.80;83.90
53748;DHT22;39655;53.210;5.768;2024-03-25T01:47:31;5.80;84.10
53748;DHT22;39655;53.210;5.768;2024-03-25T01:49:59;5.70;84.20
53748;DHT22;39655;53.210;5.768;2024-03-25T01:52:25;5.70;84.40
53748;DHT22;39655;53.210;5.768;2024-03-25T01:54:52;5.70;84.50
53748;DHT22;39655;53.210;5.768;2024-03-25T01:57:18;5.70;84.60
53748;DHT22;39655;53.210;5.768;2024-03-25T01:59:45;5.70;84.30
53748;DHT22;39655;53.210;5.768;2024-03-25T02:02:12;5.80;84.00
53748;DHT22;39655;53.210;5.768;2024-03-25T02:04:40;5.70;84.10
53748;DHT22;39655;53.210;5.768;2024-03-25T02:07:07;5.70;84.20
53748;DHT22;39655;53.210;5.768;2024-03-25T02:09:35;5.70;84.20
53748;DHT22;39655;53.210;5.768;2024-03-25T02:12:02;5.70;84.20
53748;DHT22;39655;53.210;5.768;2024-03-25T02:14:27;5.70;84.30
53748;DHT22;39655;53.210;5.768;2024-03-25T02:16:53;5.80;84.30
53748;DHT22;39655;53.210;5.768;2024-03-25T02:19:19;5.90;84.10
53748;DHT22;39655;53.210;5.768;2024-03-25T02:21:47;5.90;84.00
53748;DHT22;39655;53.210;5.768;2024-03-25T02:24:14;6.00;83.70
53748;DHT22;39655;53.210;5.768;2024-03-25T02:26:40;6.10;83.00
53748;DHT22;39655;53.210;5.768;2024-03-25T02:29:09;6.10;82.90
53748;DHT22;39655;53.210;5.768;2024-03-25T02:31:34;6.10;82.60
53748;DHT22;39655;53.210;5.768;2024-03-25T02:34:00;6.10;82.60
53748;DHT22;39655;53.210;5.768;2024-03-25T02:36:26;6.10;82.40
53748;DHT22;39655;53.210;5.768;2024-03-25T02:38:51;6.10;82.70
53748;DHT22;39655;53.210;5.768;2024-03-25T02:41:17;5.90;83.10
53748;DHT22;39655;53.210;5.768;2024-03-25T02:43:43;5.90;83.40
53748;DHT22;39655;53.210;5.768;2024-03-25T02:46:09;5.90;83.70
53748;DHT22;39655;53.210;5.768;2024-03-25T02:48:34;5.90;83.90
53748;DHT22;39655;53.210;5.768;2024-03-25T02:51:00;5.80;84.30
53748;DHT22;39655;53.210;5.768;2024-03-25T02:53:26;5.70;84.60
53748;DHT22;39655;53.210;5.768;2024-03-25T02:55:51;5.70;85.00
53748;DHT22;39655;53.210;5.768;2024-03-25T02:58:17;5.70;85.30
53748;DHT22;39655;53.210;5.768;2024-03-25T03:00:44;5.60;85.50
53748;DHT22;39655;53.210;5.768;2024-03-25T03:03:09;5.60;85.90
53748;DHT22;39655;53.210;5.768;2024-03-25T03:05:35;5.60;85.90
53748;DHT22;39655;53.210;5.768;2024-03-25T03:08:01;5.60;86.40
53748;DHT22;39655;53.210;5.768;2024-03-25T03:10:26;5.60;86.40
53748;DHT22;39655;53.210;5.768;2024-03-25T03:12:52;5.60;86.70
53748;DHT22;39655;53.210;5.768;2024-03-25T03:15:17;5.70;87.20
53748;DHT22;39655;53.210;5.768;2024-03-25T03:17:43;5.60;87.30
53748;DHT22;39655;53.210;5.768;2024-03-25T03:20:09;5.70;86.80
53748;DHT22;39655;53.210;5.768;2024-03-25T03:22:35;5.70;86.90
53748;DHT22;39655;53.210;5.768;2024-03-25T03:25:01;5.60;87.40
53748;DHT22;39655;53.210;5.768;2024-03-25T03:27:27;5.60;87.50
53748;DHT22;39655;53.210;5.768;2024-03-25T03:29:52;5.60;87.50
53748;DHT22;39655;53.210;5.768;2024-03-25T03:32:18;5.70;87.40
53748;DHT22;39655;53.210;5.768;2024-03-25T03:34:44;5.70;87.40
53748;DHT22;39655;53.210;5.768;2024-03-25T03:37:09;5.70;87.40
53748;DHT22;39655;53.210;5.768;2024-03-25T03:39:35;5.70;87.40
53748;DHT22;39655;53.210;5.768;2024-03-25T03:42:00;5.70;87.50
53748;DHT22;39655;53.210;5.768;2024-03-25T03:44:26;5.80;87.50
53748;DHT22;39655;53.210;5.768;2024-03-25T03:46:52;5.80;87.50
53748;DHT22;39655;53.210;5.768;2024-03-25T03:49:18;5.90;87.50
53748;DHT22;39655;53.210;5.768;2024-03-25T03:51:43;5.90;87.30
53748;DHT22;39655;53.210;5.768;2024-03-25T03:54:09;5.90;87.60
53748;DHT22;39655;53.210;5.768;2024-03-25T03:56:34;5.90;87.70
53748;DHT22;39655;53.210;5.768;2024-03-25T03:59:00;5.90;88.30
53748;DHT22;39655;53.210;5.768;2024-03-25T04:01:26;5.80;88.40
53748;DHT22;39655;53.210;5.768;2024-03-25T04:03:51;5.70;88.80
53748;DHT22;39655;53.210;5.768;2024-03-25T04:06:17;5.70;88.90
53748;DHT22;39655;53.210;5.768;2024-03-25T04:08:43;5.60;89.10
53748;DHT22;39655;53.210;5.768;2024-03-25T04:11:08;5.40;89.20
53748;DHT22;39655;53.210;5.768;2024-03-25T04:13:35;5.20;89.20
53748;DHT22;39655;53.210;5.768;2024-03-25T04:16:03;5.20;89.60
53748;DHT22;39655;53.210;5.768;2024-03-25T04:18:30;5.10;89.80
53748;DHT22;39655;53.210;5.768;2024-03-25T04:20:56;5.00;90.00
53748;DHT22;39655;53.210;5.768;2024-03-25T04:23:22;4.90;90.10
53748;DHT22;39655;53.210;5.768;2024-03-25T04:25:48;4.80;90.30
53748;DHT22;39655;53.210;5.768;2024-03-25T04:28:14;4.70;90.70
53748;DHT22;39655;53.210;5.768;2024-03-25T04:30:40;4.70;91.50
53748;DHT22;39655;53.210;5.768;2024-03-25T04:33:05;4.80;91.90
53748;DHT22;39655;53.210;5.768;2024-03-25T04:35:31;4.80;91.50
53748;DHT22;39655;53.210;5.768;2024-03-25T04:37:56;5.00;91.50
53748;DHT22;39655;53.210;5.768;2024-03-25T04:40:22;5.20;92.10
53748;DHT22;39655;53.210;5.768;2024-03-25T04:42:48;5.20;92.00
53748;DHT22;39655;53.210;5.768;2024-03-25T04:45:14;5.20;92.10
53748;DHT22;39655;53.210;5.768;2024-03-25T04:47:40;5.30;92.10
53748;DHT22;39655;53.210;5.768;2024-03-25T04:50:07;5.20;92.10
53748;DHT22;39655;53.210;5.768;2024-03-25T04:52:33;5.20;92.10
53748;DHT22;39655;53.210;5.768;2024-03-25T04:54:59;5.00;91.90
53748;DHT22;39655;53.210;5.768;2024-03-25T04:57:24;5.00;91.90
53748;DHT22;39655;53.210;5.768;2024-03-25T04:59:50;4.90;91.80
53748;DHT22;39655;53.210;5.768;2024-03-25T05:02:16;4.80;91.80
53748;DHT22;39655;53.210;5.768;2024-03-25T05:04:41;4.70;91.80
53748;DHT22;39655;53.210;5.768;2024-03-25T05:07:07;4.60;91.80
53748;DHT22;39655;53.210;5.768;2024-03-25T05:09:32;4.50;92.00
53748;DHT22;39655;53.210;5.768;2024-03-25T05:12:01;4.50;92.10
53748;DHT22;39655;53.210;5.768;2024-03-25T05:14:27;4.50;92.30
53748;DHT22;39655;53.210;5.768;2024-03-25T05:16:52;4.50;92.60
53748;DHT22;39655;53.210;5.768;2024-03-25T05:19:18;4.60;92.60
53748;DHT22;39655;53.210;5.768;2024-03-25T05:21:44;4.60;92.60
53748;DHT22;39655;53.210;5.768;2024-03-25T05:24:10;4.60;92.50
53748;DHT22;39655;53.210;5.768;2024-03-25T05:26:36;4.60;92.50
53748;DHT22;39655;53.210;5.768;2024-03-25T05:29:01;4.60;92.40
53748;DHT22;39655;53.210;5.768;2024-03-25T05:31:30;4.60;92.40
53748;DHT22;39655;53.210;5.768;2024-03-25T05:33:56;4.60;92.30
53748;DHT22;39655;53.210;5.768;2024-03-25T05:36:21;4.60;92.40
53748;DHT22;39655;53.210;5.768;2024-03-25T05:38:47;4.60;92.50
53748;DHT22;39655;53.210;5.768;2024-03-25T05:41:13;4.60;92.70
53748;DHT22;39655;53.210;5.768;2024-03-25T05:43:38;4.60;92.70
53748;DHT22;39655;53.210;5.768;2024-03-25T05:46:04;4.60;92.60
53748;DHT22;39655;53.210;5.768;2024-03-25T05:48:30;4.60;92.90
53748;DHT22;39655;53.210;5.768;2024-03-25T05:51:02;4.60;93.00
53748;DHT22;39655;53.210;5.768;2024-03-25T05:53:29;4.60;93.10
53748;DHT22;39655;53.210;5.768;2024-03-25T05:55:55;4.50;93.20
53748;DHT22;39655;53.210;5.768;2024-03-25T05:58:21;4.50;93.20
53748;DHT22;39655;53.210;5.768;2024-03-25T06:00:50;4.50;93.20
53748;DHT22;39655;53.210;5.768;2024-03-25T06:03:16;4.50;93.20
53748;DHT22;39655;53.210;5.768;2024-03-25T06:05:42;4.40;93.10
53748;DHT22;39655;53.210;5.768;2024-03-25T06:08:08;4.40;93.20
53748;DHT22;39655;53.210;5.768;2024-03-25T06:10:41;4.50;93.30
53748;DHT22;39655;53.210;5.768;2024-03-25T06:13:07;4.60;93.40
53748;DHT22;39655;53.210;5.768;2024-03-25T06:15:32;4.70;93.60
53748;DHT22;39655;53.210;5.768;2024-03-25T06:17:58;4.80;93.60
53748;DHT22;39655;53.210;5.768;2024-03-25T06:20:24;4.90;94.00
53748;DHT22;39655;53.210;5.768;2024-03-25T06:22:49;4.90;93.90
53748;DHT22;39655;53.210;5.768;2024-03-25T06:25:16;4.90;94.00
53748;DHT22;39655;53.210;5.768;2024-03-25T06:27:42;4.90;94.00
53748;DHT22;39655;53.210;5.768;2024-03-25T06:30:10;4.90;94.10
53748;DHT22;39655;53.210;5.768;2024-03-25T06:32:54;5.10;94.10
53748;DHT22;39655;53.210;5.768;2024-03-25T06:35:38;5.10;94.10
53748;DHT22;39655;53.210;5.768;2024-03-25T06:38:04;5.20;94.20
53748;DHT22;39655;53.210;5.768;2024-03-25T06:40:30;5.40;94.20
53748;DHT22;39655;53.210;5.768;2024-03-25T06:42:56;5.50;94.10
53748;DHT22;39655;53.210;5.768;2024-03-25T06:45:25;5.60;94.00
53748;DHT22;39655;53.210;5.768;2024-03-25T06:47:50;5.70;93.80
53748;DHT22;39655;53.210;5.768;2024-03-25T06:50:16;5.70;93.80
53748;DHT22;39655;53.210;5.768;2024-03-25T06:52:41;5.70;93.60
53748;DHT22;39655;53.210;5.768;2024-03-25T06:55:08;5.70;93.30
53748;DHT22;39655;53.210;5.768;2024-03-25T06:57:33;5.60;93.20
53748;DHT22;39655;53.210;5.768;2024-03-25T06:59:59;5.60;93.20
53748;DHT22;39655;53.210;5.768;2024-03-25T07:02:25;5.80;93.50
53748;DHT22;39655;53.210;5.768;2024-03-25T07:04:50;6.00;94.10
53748;DHT22;39655;53.210;5.768;2024-03-25T07:07:16;6.20;94.00
53748;DHT22;39655;53.210;5.768;2024-03-25T07:09:41;6.30;94.10
53748;DHT22;39655;53.210;5.768;2024-03-25T07:12:07;6.40;93.80
53748;DHT22;39655;53.210;5.768;2024-03-25T07:14:33;6.40;93.80
53748;DHT22;39655;53.210;5.768;2024-03-25T07:16:59;6.50;93.30
53748;DHT22;39655;53.210;5.768;2024-03-25T07:19:25;6.50;92.60
53748;DHT22;39655;53.210;5.768;2024-03-25T07:21:51;6.50;91.80
53748;DHT22;39655;53.210;5.768;2024-03-25T07:24:16;6.50;91.70
53748;DHT22;39655;53.210;5.768;2024-03-25T07:26:42;6.50;91.40
53748;DHT22;39655;53.210;5.768;2024-03-25T07:29:07;6.50;91.60
53748;DHT22;39655;53.210;5.768;2024-03-25T07:31:33;6.60;91.50
53748;DHT22;39655;53.210;5.768;2024-03-25T07:33:59;6.60;91.40
53748;DHT22;39655;53.210;5.768;2024-03-25T07:36:25;6.70;91.40
53748;DHT22;39655;53.210;5.768;2024-03-25T07:38:50;6.80;91.20
53748;DHT22;39655;53.210;5.768;2024-03-25T07:41:16;6.80;90.50
53748;DHT22;39655;53.210;5.768;2024-03-25T07:43:41;6.70;90.30
53748;DHT22;39655;53.210;5.768;2024-03-25T07:46:07;6.60;89.90
53748;DHT22;39655;53.210;5.768;2024-03-25T07:48:33;6.60;89.70
53748;DHT22;39655;53.210;5.768;2024-03-25T07:50:58;6.60;89.60
53748;DHT22;39655;53.210;5.768;2024-03-25T07:53:25;6.70;89.40
53748;DHT22;39655;53.210;5.768;2024-03-25T07:55:50;6.80;89.10
53748;DHT22;39655;53.210;5.768;2024-03-25T07:58:16;6.90;89.00
53748;DHT22;39655;53.210;5.768;2024-03-25T08:00:42;7.00;89.10
53748;DHT22;39655;53.210;5.768;2024-03-25T08:03:07;7.10;88.60
53748;DHT22;39655;53.210;5.768;2024-03-25T08:05:33;7.10;88.60
53748;DHT22;39655;53.210;5.768;2024-03-25T08:07:59;7.20;88.30
53748;DHT22;39655;53.210;5.768;2024-03-25T08:10:24;7.40;88.00
53748;DHT22;39655;53.210;5.768;2024-03-25T08:12:50;7.50;87.50
53748;DHT22;39655;53.210;5.768;2024-03-25T08:15:16;7.60;87.10
53748;DHT22;39655;53.210;5.768;2024-03-25T08:17:41;7.70;87.20
53748;DHT22;39655;53.210;5.768;2024-03-25T08:20:07;7.90;86.80
53748;DHT22;39655;53.210;5.768;2024-03-25T08:22:34;8.10;86.40
53748;DHT22;39655;53.210;5.768;2024-03-25T08:24:59;8.40;85.70
53748;DHT22;39655;53.210;5.768;2024-03-25T08:27:25;8.80;85.60
53748;DHT22;39655;53.210;5.768;2024-03-25T08:29:50;8.90;85.30
53748;DHT22;39655;53.210;5.768;2024-03-25T08:32:19;8.90;84.60
53748;DHT22;39655;53.210;5.768;2024-03-25T08:34:44;8.70;83.10
53748;DHT22;39655;53.210;5.768;2024-03-25T08:37:11;8.70;83.60
53748;DHT22;39655;53.210;5.768;2024-03-25T08:39:36;8.60;83.70
53748;DHT22;39655;53.210;5.768;2024-03-25T08:42:02;8.50;83.70
53748;DHT22;39655;53.210;5.768;2024-03-25T08:44:28;8.30;83.90
53748;DHT22;39655;53.210;5.768;2024-03-25T08:46:53;8.10;84.60
53748;DHT22;39655;53.210;5.768;2024-03-25T08:49:19;7.90;85.30
53748;DHT22;39655;53.210;5.768;2024-03-25T08:51:45;7.80;86.00
53748;DHT22;39655;53.210;5.768;2024-03-25T08:54:10;7.70;86.20
53748;DHT22;39655;53.210;5.768;2024-03-25T08:56:36;7.90;86.60
53748;DHT22;39655;53.210;5.768;2024-03-25T08:59:02;8.00;87.00
53748;DHT22;39655;53.210;5.768;2024-03-25T09:01:27;8.20;86.60
53748;DHT22;39655;53.210;5.768;2024-03-25T09:03:53;8.30;84.70
53748;DHT22;39655;53.210;5.768;2024-03-25T09:06:18;8.40;84.60
53748;DHT22;39655;53.210;5.768;2024-03-25T09:08:44;8.50;84.40
53748;DHT22;39655;53.210;5.768;2024-03-25T09:11:28;8.60;84.10
53748;DHT22;39655;53.210;5.768;2024-03-25T09:13:54;8.90;83.40
53748;DHT22;39655;53.210;5.768;2024-03-25T09:16:20;8.90;82.30
53748;DHT22;39655;53.210;5.768;2024-03-25T09:18:45;8.90;81.70
53748;DHT22;39655;53.210;5.768;2024-03-25T09:21:11;8.80;81.90
53748;DHT22;39655;53.210;5.768;2024-03-25T09:23:38;8.70;81.80
53748;DHT22;39655;53.210;5.768;2024-03-25T09:26:03;8.50;82.00
53748;DHT22;39655;53.210;5.768;2024-03-25T09:28:29;8.50;80.80
53748;DHT22;39655;53.210;5.768;2024-03-25T09:30:54;8.60;81.10
53748;DHT22;39655;53.210;5.768;2024-03-25T09:33:20;8.70;81.60
53748;DHT22;39655;53.210;5.768;2024-03-25T09:35:47;8.90;80.20
53748;DHT22;39655;53.210;5.768;2024-03-25T09:38:12;9.10;79.10
53748;DHT22;39655;53.210;5.768;2024-03-25T09:40:41;9.30;78.00
53748;DHT22;39655;53.210;5.768;2024-03-25T09:43:23;9.30;78.50
53748;DHT22;39655;53.210;5.768;2024-03-25T09:45:49;9.30;76.80
53748;DHT22;39655;53.210;5.768;2024-03-25T09:48:19;9.20;75.70
53748;DHT22;39655;53.210;5.768;2024-03-25T09:50:47;9.10;76.60
53748;DHT22;39655;53.210;5.768;2024-03-25T09:53:14;9.20;76.90
53748;DHT22;39655;53.210;5.768;2024-03-25T09:55:40;9.50;77.10
53748;DHT22;39655;53.210;5.768;2024-03-25T09:58:05;9.70;75.50
53748;DHT22;39655;53.210;5.768;2024-03-25T10:00:34;9.80;73.40
53748;DHT22;39655;53.210;5.768;2024-03-25T10:03:00;9.80;71.80
53748;DHT22;39655;53.210;5.768;2024-03-25T10:05:25;9.70;73.70
53748;DHT22;39655;53.210;5.768;2024-03-25T10:07:51;9.80;73.80
53748;DHT22;39655;53.210;5.768;2024-03-25T10:10:20;9.80;74.00
53748;DHT22;39655;53.210;5.768;2024-03-25T10:12:46;9.80;74.00
53748;DHT22;39655;53.210;5.768;2024-03-25T10:15:17;9.70;73.90
53748;DHT22;39655;53.210;5.768;2024-03-25T10:17:43;9.60;74.10
53748;DHT22;39655;53.210;5.768;2024-03-25T10:20:18;9.60;75.50
53748;DHT22;39655;53.210;5.768;2024-03-25T10:22:45;9.80;75.20
53748;DHT22;39655;53.210;5.768;2024-03-25T10:25:27;9.80;75.70
53748;DHT22;39655;53.210;5.768;2024-03-25T10:28:02;10.00;75.30
53748;DHT22;39655;53.210;5.768;2024-03-25T10:30:29;10.10;75.90
53748;DHT22;39655;53.210;5.768;2024-03-25T10:33:02;10.10;74.80
53748;DHT22;39655;53.210;5.768;2024-03-25T10:35:29;10.10;74.90
53748;DHT22;39655;53.210;5.768;2024-03-25T10:38:00;10.00;74.60
53748;DHT22;39655;53.210;5.768;2024-03-25T10:40:30;10.00;75.30
53748;DHT22;39655;53.210;5.768;2024-03-25T10:43:05;10.20;73.50
53748;DHT22;39655;53.210;5.768;2024-03-25T10:45:40;10.20;74.00
53748;DHT22;39655;53.210;5.768;2024-03-25T10:48:12;10.30;73.90
53748;DHT22;39655;53.210;5.768;2024-03-25T10:50:40;10.60;73.90
53748;DHT22;39655;53.210;5.768;2024-03-25T10:53:08;10.80;72.50
53748;DHT22;39655;53.210;5.768;2024-03-25T10:55:36;11.00;72.70
53748;DHT22;39655;53.210;5.768;2024-03-25T10:58:04;11.20;72.60
53748;DHT22;39655;53.210;5.768;2024-03-25T11:00:30;11.40;66.40
53748;DHT22;39655;53.210;5.768;2024-03-25T11:02:56;11.20;68.10
53748;DHT22;39655;53.210;5.768;2024-03-25T11:05:23;11.10;68.90
53748;DHT22;39655;53.210;5.768;2024-03-25T11:07:48;11.10;69.40
53748;DHT22;39655;53.210;5.768;2024-03-25T11:10:15;11.00;70.60
53748;DHT22;39655;53.210;5.768;2024-03-25T11:12:42;11.10;70.20
53748;DHT22;39655;53.210;5.768;2024-03-25T11:15:08;11.10;69.40
53748;DHT22;39655;53.210;5.768;2024-03-25T11:17:34;11.10;69.80
53748;DHT22;39655;53.210;5.768;2024-03-25T11:20:15;11.20;67.20
53748;DHT22;39655;53.210;5.768;2024-03-25T11:22:51;11.30;68.20
53748;DHT22;39655;53.210;5.768;2024-03-25T11:25:17;11.50;66.60
53748;DHT22;39655;53.210;5.768;2024-03-25T11:27:46;11.30;67.30
53748;DHT22;39655;53.210;5.768;2024-03-25T11:30:13;11.00;68.30
53748;DHT22;39655;53.210;5.768;2024-03-25T11:32:52;10.80;69.90
53748;DHT22;39655;53.210;5.768;2024-03-25T11:35:19;10.80;70.70
53748;DHT22;39655;53.210;5.768;2024-03-25T11:37:44;10.90;69.90
53748;DHT22;39655;53.210;5.768;2024-03-25T11:40:12;10.90;68.80
53748;DHT22;39655;53.210;5.768;2024-03-25T11:42:40;11.10;68.90
53748;DHT22;39655;53.210;5.768;2024-03-25T11:45:07;11.30;68.30
53748;DHT22;39655;53.210;5.768;2024-03-25T11:47:37;11.40;67.60
53748;DHT22;39655;53.210;5.768;2024-03-25T11:50:07;11.30;67.00
53748;DHT22;39655;53.210;5.768;2024-03-25T11:52:33;11.00;68.40
53748;DHT22;39655;53.210;5.768;2024-03-25T11:54:59;10.80;69.10
53748;DHT22;39655;53.210;5.768;2024-03-25T11:57:25;11.20;70.10
53748;DHT22;39655;53.210;5.768;2024-03-25T11:59:51;12.20;70.20
53748;DHT22;39655;53.210;5.768;2024-03-25T12:02:17;12.50;64.00
53748;DHT22;39655;53.210;5.768;2024-03-25T12:04:43;12.80;62.40
53748;DHT22;39655;53.210;5.768;2024-03-25T12:07:14;12.90;63.30
53748;DHT22;39655;53.210;5.768;2024-03-25T12:09:41;12.80;62.10
53748;DHT22;39655;53.210;5.768;2024-03-25T12:12:26;12.10;62.60
53748;DHT22;39655;53.210;5.768;2024-03-25T12:14:52;11.70;65.10
53748;DHT22;39655;53.210;5.768;2024-03-25T12:17:19;11.50;65.40
53748;DHT22;39655;53.210;5.768;2024-03-25T12:20:04;11.50;65.10
53748;DHT22;39655;53.210;5.768;2024-03-25T12:22:30;11.50;64.80
53748;DHT22;39655;53.210;5.768;2024-03-25T12:25:00;11.40;65.40
53748;DHT22;39655;53.210;5.768;2024-03-25T12:27:27;11.20;65.90
53748;DHT22;39655;53.210;5.768;2024-03-25T12:30:01;11.10;66.90
53748;DHT22;39655;53.210;5.768;2024-03-25T12:32:46;11.20;65.60
53748;DHT22;39655;53.210;5.768;2024-03-25T12:35:13;11.30;66.20
53748;DHT22;39655;53.210;5.768;2024-03-25T12:37:40;11.30;66.10
53748;DHT22;39655;53.210;5.768;2024-03-25T12:40:07;11.40;65.60
53748;DHT22;39655;53.210;5.768;2024-03-25T12:42:34;11.60;66.90
53748;DHT22;39655;53.210;5.768;2024-03-25T12:45:00;12.00;64.60
53748;DHT22;39655;53.210;5.768;2024-03-25T12:47:26;12.20;64.50
53748;DHT22;39655;53.210;5.768;2024-03-25T12:49:51;12.20;63.60
53748;DHT22;39655;53.210;5.768;2024-03-25T12:52:17;12.00;62.40
53748;DHT22;39655;53.210;5.768;2024-03-25T12:54:43;11.80;63.40
53748;DHT22;39655;53.210;5.768;2024-03-25T12:57:09;11.80;64.10
53748;DHT22;39655;53.210;5.768;2024-03-25T12:59:34;11.80;64.50
53748;DHT22;39655;53.210;5.768;2024-03-25T13:02:00;11.90;64.40
53748;DHT22;39655;53.210;5.768;2024-03-25T13:04:26;12.10;63.20
53748;DHT22;39655;53.210;5.768;2024-03-25T13:06:52;12.40;63.80
53748;DHT22;39655;53.210;5.768;2024-03-25T13:09:18;12.80;64.40
53748;DHT22;39655;53.210;5.768;2024-03-25T13:11:43;12.90;59.30
53748;DHT22;39655;53.210;5.768;2024-03-25T13:14:12;12.90;60.70
53748;DHT22;39655;53.210;5.768;2024-03-25T13:16:38;13.00;58.20
53748;DHT22;39655;53.210;5.768;2024-03-25T13:19:03;12.80;57.50
53748;DHT22;39655;53.210;5.768;2024-03-25T13:21:29;12.70;58.80
53748;DHT22;39655;53.210;5.768;2024-03-25T13:23:55;12.90;58.20
53748;DHT22;39655;53.210;5.768;2024-03-25T13:26:21;13.10;58.30
53748;DHT22;39655;53.210;5.768;2024-03-25T13:28:46;13.40;58.00
53748;DHT22;39655;53.210;5.768;2024-03-25T13:31:12;14.10;59.10
53748;DHT22;39655;53.210;5.768;2024-03-25T13:33:41;14.70;53.50
53748;DHT22;39655;53.210;5.768;2024-03-25T13:36:07;15.20;53.60
53748;DHT22;39655;53.210;5.768;2024-03-25T13:38:33;16.10;52.70
53748;DHT22;39655;53.210;5.768;2024-03-25T13:41:02;16.80;47.00
53748;DHT22;39655;53.210;5.768;2024-03-25T13:43:28;16.50;47.40
53748;DHT22;39655;53.210;5.768;2024-03-25T13:45:54;16.20;49.60
53748;DHT22;39655;53.210;5.768;2024-03-25T13:48:19;15.50;50.90
53748;DHT22;39655;53.210;5.768;2024-03-25T13:50:45;15.10;52.60
53748;DHT22;39655;53.210;5.768;2024-03-25T13:53:11;15.00;53.80
53748;DHT22;39655;53.210;5.768;2024-03-25T13:55:36;15.30;52.50
53748;DHT22;39655;53.210;5.768;2024-03-25T13:58:02;16.20;51.40
53748;DHT22;39655;53.210;5.768;2024-03-25T14:00:28;16.80;48.90
53748;DHT22;39655;53.210;5.768;2024-03-25T14:02:57;17.60;46.70
53748;DHT22;39655;53.210;5.768;2024-03-25T14:05:23;18.10;46.50
53748;DHT22;39655;53.210;5.768;2024-03-25T14:07:49;19.00;43.40
53748;DHT22;39655;53.210;5.768;2024-03-25T14:10:15;19.30;41.60
53748;DHT22;39655;53.210;5.768;2024-03-25T14:12:42;19.60;39.30
53748;DHT22;39655;53.210;5.768;2024-03-25T14:15:08;19.00;39.70
53748;DHT22;39655;53.210;5.768;2024-03-25T14:17:34;18.10;40.80
53748;DHT22;39655;53.210;5.768;2024-03-25T14:19:59;17.10;43.40
53748;DHT22;39655;53.210;5.768;2024-03-25T14:22:25;16.10;44.90
53748;DHT22;39655;53.210;5.768;2024-03-25T14:24:51;15.60;47.70
53748;DHT22;39655;53.210;5.768;2024-03-25T14:27:22;16.30;46.60
53748;DHT22;39655;53.210;5.768;2024-03-25T14:29:48;17.40;44.80
53748;DHT22;39655;53.210;5.768;2024-03-25T14:32:19;18.30;42.70
53748;DHT22;39655;53.210;5.768;2024-03-25T14:34:45;19.00;40.80
53748;DHT22;39655;53.210;5.768;2024-03-25T14:37:11;18.90;41.40
53748;DHT22;39655;53.210;5.768;2024-03-25T14:39:36;19.20;41.50
53748;DHT22;39655;53.210;5.768;2024-03-25T14:42:02;19.60;38.10
53748;DHT22;39655;53.210;5.768;2024-03-25T14:44:29;19.60;39.30
53748;DHT22;39655;53.210;5.768;2024-03-25T14:46:55;20.10;40.80
53748;DHT22;39655;53.210;5.768;2024-03-25T14:49:20;20.70;37.10
53748;DHT22;39655;53.210;5.768;2024-03-25T14:51:46;20.20;36.80
53748;DHT22;39655;53.210;5.768;2024-03-25T14:54:13;19.90;37.00
53748;DHT22;39655;53.210;5.768;2024-03-25T14:56:39;20.00;37.00
53748;DHT22;39655;53.210;5.768;2024-03-25T14:59:04;20.30;38.60
53748;DHT22;39655;53.210;5.768;2024-03-25T15:01:30;20.60;40.60
53748;DHT22;39655;53.210;5.768;2024-03-25T15:03:57;20.40;36.70
53748;DHT22;39655;53.210;5.768;2024-03-25T15:06:22;19.00;39.90
53748;DHT22;39655;53.210;5.768;2024-03-25T15:08:48;17.60;42.10
53748;DHT22;39655;53.210;5.768;2024-03-25T15:11:13;16.60;44.00
53748;DHT22;39655;53.210;5.768;2024-03-25T15:13:39;15.90;46.00
53748;DHT22;39655;53.210;5.768;2024-03-25T15:16:07;15.40;47.70
53748;DHT22;39655;53.210;5.768;2024-03-25T15:18:32;14.80;49.30
53748;DHT22;39655;53.210;5.768;2024-03-25T15:21:02;14.50;51.70
53748;DHT22;39655;53.210;5.768;2024-03-25T15:23:28;14.10;52.40
53748;DHT22;39655;53.210;5.768;2024-03-25T15:25:54;13.80;53.10
53748;DHT22;39655;53.210;5.768;2024-03-25T15:28:20;13.60;53.30
53748;DHT22;39655;53.210;5.768;2024-03-25T15:30:46;13.40;54.50
53748;DHT22;39655;53.210;5.768;2024-03-25T15:33:13;13.30;54.60
53748;DHT22;39655;53.210;5.768;2024-03-25T15:35:39;13.30;54.70